Time;durP1;ratioP1;P1;durP2;ratioP2;P2;SDS_P1;SDS_P2;PMS_P1;PMS_P2;Temp;Humidity;BMP_temperature;BMP_pressure;BME280_temperature;BME280_humidity;BME280_pressure;Samples;Min_cycle;Max_cycle;Signal;HPM_P1;HPM_P2
2022/01/05 00:00:18;;;;;;;;;;;6.10;99.90;;;;;;5082440;28;19924;-48
2022/01/05 00:02:44;;;;;;;;;;;5.90;99.90;;;;;;5074796;28;19977;-48
2022/01/05 00:05:11;;;;;;;;;;;5.80;99.90;;;;;;5074084;28;19932;-47
2022/01/05 00:07:38;;;;;;;;;;;5.70;99.90;;;;;;5073918;28;19931;-49
2022/01/05 00:10:05;;;;;;;;;;;5.60;99.90;;;;;;5074728;28;19928;-49
2022/01/05 00:12:32;;;;;;;;;;;5.60;99.90;;;;;;5087419;28;19997;-50
2022/01/05 00:15:00;;;;;;;;;;;5.60;99.90;;;;;;5094119;28;20052;-50
2022/01/05 00:17:27;;;;;;;;;;;5.60;99.90;;;;;;5086870;28;19932;-47
2022/01/05 00:19:54;;;;;;;;;;;5.50;99.90;;;;;;5073508;28;19925;-48
2022/01/05 00:22:21;;;;;;;;;;;5.30;99.90;;;;;;5072876;28;19925;-48
2022/01/05 00:24:47;;;;;;;;;;;5.40;99.90;;;;;;5074592;28;20348;-51
2022/01/05 00:27:14;;;;;;;;;;;5.30;99.90;;;;;;5073539;28;19981;-50
2022/01/05 00:29:41;;;;;;;;;;;5.20;99.90;;;;;;5073481;28;19978;-48
2022/01/05 00:32:09;;;;;;;;;;;5.10;99.90;;;;;;5081600;28;20557;-48
2022/01/05 00:34:36;;;;;;;;;;;5.00;99.90;;;;;;5073282;28;20016;-50
2022/01/05 00:37:03;;;;;;;;;;;4.90;99.90;;;;;;5072492;28;19988;-49
2022/01/05 00:39:30;;;;;;;;;;;4.70;99.90;;;;;;5079354;28;19978;-47
2022/01/05 00:41:57;;;;;;;;;;;4.60;99.90;;;;;;5079824;28;20002;-49
2022/01/05 00:44:24;;;;;;;;;;;4.70;99.90;;;;;;5073364;28;20374;-49
2022/01/05 00:46:51;;;;;;;;;;;4.80;99.90;;;;;;5081385;28;19974;-48
2022/01/05 00:49:19;;;;;;;;;;;4.70;99.90;;;;;;5081625;28;19924;-49
2022/01/05 00:51:46;;;;;;;;;;;4.80;99.90;;;;;;5098461;22;19933;-50
2022/01/05 00:54:13;;;;;;;;;;;4.80;99.90;;;;;;5092511;28;19946;-54
2022/01/05 00:56:40;;;;;;;;;;;4.80;99.90;;;;;;5094040;28;19961;-52
2022/01/05 00:59:06;;;;;;;;;;;4.80;99.90;;;;;;5093906;28;19924;-52
2022/01/05 01:01:33;;;;;;;;;;;4.90;99.90;;;;;;5093822;28;19970;-53
2022/01/05 01:04:00;;;;;;;;;;;4.90;99.90;;;;;;5090964;28;19924;-53
2022/01/05 01:06:28;;;;;;;;;;;4.90;99.90;;;;;;5087797;28;19928;-51
2022/01/05 01:08:55;;;;;;;;;;;5.00;99.90;;;;;;5092304;28;19970;-51
2022/01/05 01:11:22;;;;;;;;;;;5.10;99.90;;;;;;5092890;28;20483;-51
2022/01/05 01:13:48;;;;;;;;;;;5.20;99.90;;;;;;5093622;28;20336;-52
2022/01/05 01:16:15;;;;;;;;;;;5.10;99.90;;;;;;5092856;28;19969;-52
2022/01/05 01:18:42;;;;;;;;;;;5.00;99.90;;;;;;5092995;28;19981;-52
2022/01/05 01:21:09;;;;;;;;;;;4.90;99.90;;;;;;5092555;28;20620;-52
2022/01/05 01:23:38;;;;;;;;;;;5.10;99.90;;;;;;5093355;28;19984;-51
2022/01/05 01:26:04;;;;;;;;;;;5.10;99.90;;;;;;5092927;28;19928;-52
2022/01/05 01:28:31;;;;;;;;;;;5.00;99.90;;;;;;5092978;28;19924;-52
2022/01/05 01:30:58;;;;;;;;;;;4.90;99.90;;;;;;5093397;28;19924;-52
2022/01/05 01:33:25;;;;;;;;;;;5.00;99.90;;;;;;5092893;28;19928;-52
2022/01/05 01:35:52;;;;;;;;;;;4.80;99.90;;;;;;5093480;28;19935;-52
2022/01/05 01:38:18;;;;;;;;;;;4.70;99.90;;;;;;5091647;28;19936;-52
2022/01/05 01:40:47;;;;;;;;;;;4.60;99.90;;;;;;5093452;28;19928;-52
2022/01/05 01:43:15;;;;;;;;;;;4.60;99.90;;;;;;5093022;28;19931;-52
2022/01/05 01:45:42;;;;;;;;;;;4.50;99.90;;;;;;5093132;28;19975;-52
2022/01/05 01:48:09;;;;;;;;;;;4.50;99.90;;;;;;5093065;28;19932;-50
2022/01/05 01:50:35;;;;;;;;;;;4.30;99.90;;;;;;5092891;28;19928;-51
2022/01/05 01:53:02;;;;;;;;;;;4.20;99.90;;;;;;5092786;28;19989;-51
2022/01/05 01:55:29;;;;;;;;;;;4.00;99.90;;;;;;5092543;28;19928;-51
2022/01/05 01:57:59;;;;;;;;;;;3.90;99.90;;;;;;5092886;28;20335;-51
2022/01/05 02:00:29;;;;;;;;;;;3.80;99.90;;;;;;5092351;28;19989;-52
2022/01/05 02:02:56;;;;;;;;;;;3.70;99.90;;;;;;5090419;28;19931;-51
2022/01/05 02:05:23;;;;;;;;;;;3.50;99.90;;;;;;5092732;28;19924;-51
2022/01/05 02:07:50;;;;;;;;;;;3.50;99.90;;;;;;5091983;28;19924;-51
2022/01/05 02:10:17;;;;;;;;;;;3.50;99.90;;;;;;5090971;28;19930;-51
2022/01/05 02:12:43;;;;;;;;;;;3.40;99.90;;;;;;5092410;28;19978;-52
2022/01/05 02:15:12;;;;;;;;;;;3.40;99.90;;;;;;5093182;28;19978;-51
2022/01/05 02:17:51;;;;;;;;;;;3.40;99.90;;;;;;5092271;28;19924;-52
2022/01/05 02:20:19;;;;;;;;;;;3.30;99.90;;;;;;5092908;28;19924;-52
2022/01/05 02:22:51;;;;;;;;;;;3.20;99.90;;;;;;5092204;28;19924;-52
2022/01/05 02:25:17;;;;;;;;;;;3.30;99.90;;;;;;5072488;28;19924;-52
2022/01/05 02:27:48;;;;;;;;;;;3.20;99.90;;;;;;5072534;28;20006;-53
2022/01/05 02:30:18;;;;;;;;;;;3.20;99.90;;;;;;5072465;28;19924;-53
2022/01/05 02:32:45;;;;;;;;;;;3.10;99.90;;;;;;5091170;28;19970;-52
2022/01/05 02:35:12;;;;;;;;;;;3.10;99.90;;;;;;5092282;28;19924;-52
2022/01/05 02:37:42;;;;;;;;;;;3.10;99.90;;;;;;5092307;28;19932;-52
2022/01/05 02:40:12;;;;;;;;;;;3.20;99.90;;;;;;5093001;28;20019;-51
2022/01/05 02:42:39;;;;;;;;;;;3.20;99.90;;;;;;5092395;28;19925;-51
2022/01/05 02:45:06;;;;;;;;;;;3.30;99.90;;;;;;5091820;28;19986;-52
2022/01/05 02:47:33;;;;;;;;;;;3.30;99.90;;;;;;5091669;28;19970;-52
2022/01/05 02:50:00;;;;;;;;;;;3.00;99.90;;;;;;5092431;28;19981;-51
2022/01/05 02:52:27;;;;;;;;;;;3.00;99.90;;;;;;5091575;28;19928;-52
2022/01/05 02:54:53;;;;;;;;;;;3.10;99.90;;;;;;5092772;28;19928;-52
2022/01/05 02:57:22;;;;;;;;;;;3.10;99.90;;;;;;5092652;28;19969;-52
2022/01/05 02:59:49;;;;;;;;;;;3.10;99.90;;;;;;5091825;28;20522;-52
2022/01/05 03:02:16;;;;;;;;;;;3.10;99.90;;;;;;5092114;28;19925;-51
2022/01/05 03:04:42;;;;;;;;;;;3.20;99.90;;;;;;5092395;28;19928;-51
2022/01/05 03:07:09;;;;;;;;;;;3.20;99.90;;;;;;5091581;28;19925;-51
2022/01/05 03:09:36;;;;;;;;;;;3.20;99.90;;;;;;5091925;28;19924;-51
2022/01/05 03:12:03;;;;;;;;;;;3.30;99.90;;;;;;5091981;28;19990;-52
2022/01/05 03:14:31;;;;;;;;;;;3.30;99.90;;;;;;5092025;28;20351;-52
2022/01/05 03:16:58;;;;;;;;;;;3.30;99.90;;;;;;5092159;28;20462;-52
2022/01/05 03:19:24;;;;;;;;;;;3.30;99.90;;;;;;5091620;28;20450;-52
2022/01/05 03:21:51;;;;;;;;;;;3.20;99.90;;;;;;5090168;28;19924;-52
2022/01/05 03:24:18;;;;;;;;;;;3.20;99.90;;;;;;5091214;28;19924;-51
2022/01/05 03:26:45;;;;;;;;;;;3.30;99.90;;;;;;5091795;28;19924;-52
2022/01/05 03:29:12;;;;;;;;;;;3.30;99.90;;;;;;5091483;28;19924;-51
2022/01/05 03:31:40;;;;;;;;;;;3.30;99.90;;;;;;5091798;28;20439;-52
2022/01/05 03:34:06;;;;;;;;;;;3.30;99.90;;;;;;5091279;28;20339;-52
2022/01/05 03:36:33;;;;;;;;;;;3.30;99.90;;;;;;5091807;28;19928;-52
2022/01/05 03:39:00;;;;;;;;;;;3.30;99.90;;;;;;5091016;28;19924;-52
2022/01/05 03:41:27;;;;;;;;;;;3.30;99.90;;;;;;5091151;28;19924;-52
2022/01/05 03:43:53;;;;;;;;;;;3.30;99.90;;;;;;5091551;28;19928;-52
2022/01/05 03:46:20;;;;;;;;;;;3.40;99.90;;;;;;5091701;28;19969;-52
2022/01/05 03:48:48;;;;;;;;;;;3.40;99.90;;;;;;5091070;28;19950;-52
2022/01/05 03:51:15;;;;;;;;;;;3.40;99.90;;;;;;5091550;28;19924;-52
2022/01/05 03:53:42;;;;;;;;;;;3.40;99.90;;;;;;5090870;28;20523;-52
2022/01/05 03:56:09;;;;;;;;;;;3.50;99.90;;;;;;5091443;28;20037;-52
2022/01/05 03:58:35;;;;;;;;;;;3.40;99.90;;;;;;5094499;28;19970;-52
2022/01/05 04:01:02;;;;;;;;;;;3.50;99.90;;;;;;5094586;28;19928;-52
2022/01/05 04:03:29;;;;;;;;;;;3.50;99.90;;;;;;5094983;28;20335;-52
2022/01/05 04:05:57;;;;;;;;;;;3.60;99.90;;;;;;5094808;28;19977;-52
2022/01/05 04:08:24;;;;;;;;;;;3.50;99.90;;;;;;5094823;28;19932;-54
2022/01/05 04:10:50;;;;;;;;;;;3.70;99.90;;;;;;5098565;28;19970;-52
2022/01/05 04:13:18;;;;;;;;;;;3.60;99.90;;;;;;5100301;28;20334;-52
2022/01/05 04:15:44;;;;;;;;;;;3.60;99.90;;;;;;5100119;28;20546;-52
2022/01/05 04:18:11;;;;;;;;;;;3.50;99.90;;;;;;5098067;28;19977;-52
2022/01/05 04:20:38;;;;;;;;;;;3.50;99.90;;;;;;5093686;28;20386;-52
2022/01/05 04:23:06;;;;;;;;;;;3.60;99.90;;;;;;5091204;28;19977;-52
2022/01/05 04:25:33;;;;;;;;;;;3.70;99.90;;;;;;5088546;28;20459;-52
2022/01/05 04:28:00;;;;;;;;;;;3.60;99.90;;;;;;5094266;28;20007;-52
2022/01/05 04:30:27;;;;;;;;;;;3.60;99.90;;;;;;5094439;28;19924;-52
2022/01/05 04:32:54;;;;;;;;;;;3.50;99.90;;;;;;5092816;28;19932;-52
2022/01/05 04:35:20;;;;;;;;;;;3.50;99.90;;;;;;5093837;28;19969;-52
2022/01/05 04:37:50;;;;;;;;;;;3.60;99.90;;;;;;5094457;28;20464;-52
2022/01/05 04:40:18;;;;;;;;;;;3.60;99.90;;;;;;5094664;28;19924;-52
2022/01/05 04:42:45;;;;;;;;;;;3.70;99.90;;;;;;5094087;28;20439;-52
2022/01/05 04:45:12;;;;;;;;;;;3.70;99.90;;;;;;5093648;28;19969;-52
2022/01/05 04:47:39;;;;;;;;;;;3.80;99.90;;;;;;5093727;28;19977;-52
2022/01/05 04:50:06;;;;;;;;;;;3.70;99.90;;;;;;5093947;28;19977;-52
2022/01/05 04:52:33;;;;;;;;;;;3.70;99.90;;;;;;5093413;28;19924;-52
2022/01/05 04:54:59;;;;;;;;;;;3.70;99.90;;;;;;5093763;28;20418;-51
2022/01/05 04:57:27;;;;;;;;;;;3.70;99.90;;;;;;5093832;28;19971;-52
2022/01/05 04:59:54;;;;;;;;;;;3.60;99.90;;;;;;5093148;28;19928;-52
2022/01/05 05:02:21;;;;;;;;;;;3.60;99.90;;;;;;5093714;28;19924;-52
2022/01/05 05:04:48;;;;;;;;;;;3.70;99.90;;;;;;5089451;28;19932;-52
2022/01/05 05:07:14;;;;;;;;;;;3.70;99.90;;;;;;5092663;28;20405;-52
2022/01/05 05:09:41;;;;;;;;;;;3.70;99.90;;;;;;5093454;28;19924;-52
2022/01/05 05:12:08;;;;;;;;;;;3.70;99.90;;;;;;5093929;28;19923;-52
2022/01/05 05:14:37;;;;;;;;;;;3.70;99.90;;;;;;5092791;28;19932;-52
2022/01/05 05:17:04;;;;;;;;;;;3.60;99.90;;;;;;5085130;28;19929;-52
2022/01/05 05:19:31;;;;;;;;;;;3.70;99.90;;;;;;5083135;28;19989;-52
2022/01/05 05:21:58;;;;;;;;;;;3.60;99.90;;;;;;5089576;28;19924;-51
2022/01/05 05:24:25;;;;;;;;;;;3.70;99.90;;;;;;5093368;28;19928;-51
2022/01/05 05:26:51;;;;;;;;;;;3.70;99.90;;;;;;5093524;28;20003;-52
2022/01/05 05:29:18;;;;;;;;;;;3.70;99.90;;;;;;5092799;28;19924;-51
2022/01/05 05:31:47;;;;;;;;;;;3.80;99.90;;;;;;5092945;28;20339;-52
2022/01/05 05:34:13;;;;;;;;;;;3.80;99.90;;;;;;5093235;28;19928;-52
2022/01/05 05:36:40;;;;;;;;;;;3.90;99.90;;;;;;5093391;28;19931;-52
2022/01/05 05:39:07;;;;;;;;;;;3.90;99.90;;;;;;5092734;28;19924;-52
2022/01/05 05:41:34;;;;;;;;;;;3.90;99.90;;;;;;5093185;28;19977;-52
2022/01/05 05:44:00;;;;;;;;;;;3.80;99.90;;;;;;5093278;28;19928;-52
2022/01/05 05:46:27;;;;;;;;;;;3.90;99.90;;;;;;5092986;28;19924;-52
2022/01/05 05:48:55;;;;;;;;;;;3.90;99.90;;;;;;5092756;28;19977;-52
2022/01/05 05:51:22;;;;;;;;;;;4.00;99.90;;;;;;5092808;28;19977;-51
2022/01/05 05:53:49;;;;;;;;;;;4.00;99.90;;;;;;5092094;28;19931;-51
2022/01/05 05:56:16;;;;;;;;;;;3.90;99.90;;;;;;5093009;28;19924;-52
2022/01/05 05:58:43;;;;;;;;;;;3.90;99.90;;;;;;5092675;28;19984;-51
2022/01/05 06:01:09;;;;;;;;;;;3.90;99.90;;;;;;5092572;28;20015;-51
2022/01/05 06:03:36;;;;;;;;;;;3.80;99.90;;;;;;5092541;28;19924;-51
2022/01/05 06:06:04;;;;;;;;;;;3.80;99.90;;;;;;5093176;28;19924;-51
2022/01/05 06:08:31;;;;;;;;;;;3.80;99.90;;;;;;5092356;28;20386;-51
2022/01/05 06:10:58;;;;;;;;;;;3.90;99.90;;;;;;5092306;28;19936;-51
2022/01/05 06:13:25;;;;;;;;;;;3.80;99.90;;;;;;5092429;28;19928;-51
2022/01/05 06:15:51;;;;;;;;;;;3.90;99.90;;;;;;5092248;28;19993;-51
2022/01/05 06:18:18;;;;;;;;;;;3.90;99.90;;;;;;5092132;28;20446;-51
2022/01/05 06:20:45;;;;;;;;;;;3.90;99.90;;;;;;5092058;28;19928;-51
2022/01/05 06:23:13;;;;;;;;;;;3.90;99.90;;;;;;5092337;28;20278;-51
2022/01/05 06:25:40;;;;;;;;;;;4.10;99.90;;;;;;5092780;28;19985;-51
2022/01/05 06:28:10;;;;;;;;;;;4.00;99.90;;;;;;5079471;28;19924;-51
2022/01/05 06:30:38;;;;;;;;;;;4.00;99.90;;;;;;5093792;28;19928;-52
2022/01/05 06:33:04;;;;;;;;;;;4.00;99.90;;;;;;5092172;28;19924;-51
2022/01/05 06:35:31;;;;;;;;;;;4.00;99.90;;;;;;5092691;28;19977;-51
2022/01/05 06:37:58;;;;;;;;;;;4.20;99.90;;;;;;5091634;28;19924;-51
2022/01/05 06:40:26;;;;;;;;;;;4.30;99.90;;;;;;5092275;28;19928;-51
2022/01/05 06:42:55;;;;;;;;;;;4.20;99.90;;;;;;5092304;28;19969;-52
2022/01/05 06:45:22;;;;;;;;;;;4.30;99.90;;;;;;5090390;28;20336;-51
2022/01/05 06:47:48;;;;;;;;;;;4.10;99.90;;;;;;5092033;28;20393;-52
2022/01/05 06:50:15;;;;;;;;;;;4.20;99.90;;;;;;5091909;28;19981;-51
2022/01/05 06:52:42;;;;;;;;;;;4.20;99.90;;;;;;5092025;28;19924;-52
2022/01/05 06:55:10;;;;;;;;;;;4.20;99.90;;;;;;5092343;28;19970;-52
2022/01/05 06:57:39;;;;;;;;;;;4.30;99.90;;;;;;5091965;28;19967;-51
2022/01/05 07:00:07;;;;;;;;;;;4.30;99.90;;;;;;5090442;28;19955;-52
2022/01/05 07:02:33;;;;;;;;;;;4.20;99.90;;;;;;5075079;28;19977;-52
2022/01/05 07:05:00;;;;;;;;;;;4.00;99.90;;;;;;5091881;28;19977;-52
2022/01/05 07:07:27;;;;;;;;;;;4.00;99.90;;;;;;5091761;28;19966;-52
2022/01/05 07:09:54;;;;;;;;;;;3.90;99.90;;;;;;5091620;28;19924;-51
2022/01/05 07:12:20;;;;;;;;;;;3.80;99.90;;;;;;5091982;28;19924;-52
2022/01/05 07:14:48;;;;;;;;;;;3.80;99.90;;;;;;5091493;28;19925;-52
2022/01/05 07:17:15;;;;;;;;;;;3.80;99.90;;;;;;5091270;28;20424;-52
2022/01/05 07:19:42;;;;;;;;;;;3.70;99.90;;;;;;5075175;28;19924;-52
2022/01/05 07:22:09;;;;;;;;;;;3.80;99.90;;;;;;5085171;28;19924;-51
2022/01/05 07:24:35;;;;;;;;;;;3.80;99.90;;;;;;5091793;28;19928;-52
2022/01/05 07:27:02;;;;;;;;;;;3.80;99.90;;;;;;5091698;28;19924;-52
2022/01/05 07:29:29;;;;;;;;;;;3.90;99.90;;;;;;5090908;28;19970;-52
2022/01/05 07:31:57;;;;;;;;;;;3.90;99.90;;;;;;5093239;28;19998;-52
2022/01/05 07:34:24;;;;;;;;;;;3.90;99.90;;;;;;5094167;28;20393;-52
2022/01/05 07:36:51;;;;;;;;;;;3.90;99.90;;;;;;5095224;28;19924;-52
2022/01/05 07:39:17;;;;;;;;;;;4.00;99.90;;;;;;5095416;28;19981;-52
2022/01/05 07:41:44;;;;;;;;;;;4.00;99.90;;;;;;5094998;28;19924;-52
2022/01/05 07:44:11;;;;;;;;;;;4.00;99.90;;;;;;5094852;28;19925;-52
2022/01/05 07:46:37;;;;;;;;;;;4.00;99.90;;;;;;5091352;28;19977;-52
2022/01/05 07:49:06;;;;;;;;;;;4.10;99.90;;;;;;5090160;28;20442;-52
2022/01/05 07:51:33;;;;;;;;;;;4.10;99.90;;;;;;5094926;28;19930;-52
2022/01/05 07:54:00;;;;;;;;;;;4.20;99.90;;;;;;5095607;28;19924;-52
2022/01/05 07:56:27;;;;;;;;;;;4.20;99.90;;;;;;5094660;28;19927;-52
2022/01/05 07:58:54;;;;;;;;;;;4.20;99.90;;;;;;5095056;28;19923;-52
2022/01/05 08:01:21;;;;;;;;;;;4.20;99.90;;;;;;5094536;28;19931;-52
2022/01/05 08:03:48;;;;;;;;;;;4.20;99.90;;;;;;5094619;28;19924;-52
2022/01/05 08:06:17;;;;;;;;;;;4.20;99.90;;;;;;5094953;28;19957;-52
2022/01/05 08:08:44;;;;;;;;;;;4.30;99.90;;;;;;5094850;28;20374;-52
2022/01/05 08:11:11;;;;;;;;;;;4.30;99.90;;;;;;5094687;28;19969;-52
2022/01/05 08:13:38;;;;;;;;;;;4.30;99.90;;;;;;5094850;28;19924;-52
2022/01/05 08:16:05;;;;;;;;;;;4.30;99.90;;;;;;5094891;28;19969;-52
2022/01/05 08:18:32;;;;;;;;;;;4.40;99.90;;;;;;5094354;28;19924;-52
2022/01/05 08:20:58;;;;;;;;;;;4.50;99.90;;;;;;5094526;28;19928;-52
2022/01/05 08:23:27;;;;;;;;;;;4.40;99.90;;;;;;5095249;28;19924;-52
2022/01/05 08:25:54;;;;;;;;;;;4.40;99.90;;;;;;5095021;28;19965;-52
2022/01/05 08:28:21;;;;;;;;;;;4.30;99.90;;;;;;5092414;28;19977;-52
2022/01/05 08:30:48;;;;;;;;;;;4.30;99.90;;;;;;5094443;28;19924;-52
2022/01/05 08:33:15;;;;;;;;;;;4.30;99.90;;;;;;5094520;28;19924;-52
2022/01/05 08:35:42;;;;;;;;;;;4.40;99.90;;;;;;5094500;28;19985;-52
2022/01/05 08:38:09;;;;;;;;;;;4.40;99.90;;;;;;5091963;28;19992;-52
2022/01/05 08:40:38;;;;;;;;;;;4.40;99.90;;;;;;5093177;28;20537;-51
2022/01/05 08:43:06;;;;;;;;;;;4.40;99.90;;;;;;5093170;28;19924;-51
2022/01/05 08:45:32;;;;;;;;;;;4.20;99.90;;;;;;5090914;28;19932;-51
2022/01/05 08:47:59;;;;;;;;;;;3.80;99.90;;;;;;5093203;28;19928;-51
2022/01/05 08:50:28;;;;;;;;;;;3.60;99.90;;;;;;5093376;28;19924;-51
2022/01/05 08:52:57;;;;;;;;;;;3.60;99.90;;;;;;5093211;28;19932;-51
2022/01/05 08:55:25;;;;;;;;;;;3.60;99.90;;;;;;5093411;28;19924;-51
2022/01/05 08:57:56;;;;;;;;;;;3.60;99.90;;;;;;5092278;28;19977;-51
2022/01/05 09:00:23;;;;;;;;;;;3.60;99.90;;;;;;5090636;28;20053;-52
2022/01/05 09:02:50;;;;;;;;;;;3.50;99.90;;;;;;5089846;28;19977;-51
2022/01/05 09:05:17;;;;;;;;;;;3.60;99.90;;;;;;5093659;28;19924;-52
2022/01/05 09:07:44;;;;;;;;;;;3.60;99.90;;;;;;5082439;28;19966;-52
2022/01/05 09:10:11;;;;;;;;;;;3.50;99.90;;;;;;5091326;28;20381;-51
2022/01/05 09:12:37;;;;;;;;;;;3.50;99.90;;;;;;5091999;28;19978;-52
2022/01/05 09:15:06;;;;;;;;;;;3.50;99.90;;;;;;5091549;28;19977;-51
2022/01/05 09:17:33;;;;;;;;;;;3.50;99.90;;;;;;5091160;28;19993;-52
2022/01/05 09:20:00;;;;;;;;;;;3.50;99.90;;;;;;5085750;28;19924;-52
2022/01/05 09:22:26;;;;;;;;;;;3.50;99.90;;;;;;5090318;28;19924;-51
2022/01/05 09:24:54;;;;;;;;;;;3.40;99.90;;;;;;5092653;28;20362;-52
2022/01/05 09:27:21;;;;;;;;;;;3.40;99.90;;;;;;5091686;28;20286;-51
2022/01/05 09:29:50;;;;;;;;;;;3.30;99.90;;;;;;5092714;28;19927;-52
2022/01/05 09:32:18;;;;;;;;;;;3.30;99.90;;;;;;5092422;28;20393;-51
2022/01/05 09:34:45;;;;;;;;;;;3.30;99.90;;;;;;5092080;28;19985;-52
2022/01/05 09:37:14;;;;;;;;;;;3.40;99.90;;;;;;5093265;28;19928;-52
2022/01/05 09:42:25;;;;;;;;;;;3.40;99.90;;;;;;5072973;28;19935;-52
2022/01/05 09:44:53;;;;;;;;;;;3.50;99.90;;;;;;5080312;28;19977;-51
2022/01/05 09:47:30;;;;;;;;;;;3.60;99.90;;;;;;5093440;28;19989;-52
2022/01/05 09:49:59;;;;;;;;;;;3.70;99.90;;;;;;5094165;28;19946;-51
2022/01/05 09:52:26;;;;;;;;;;;3.70;99.90;;;;;;5096787;28;19924;-52
2022/01/05 09:54:53;;;;;;;;;;;3.70;99.90;;;;;;5094993;28;19924;-52
2022/01/05 09:57:21;;;;;;;;;;;3.60;99.90;;;;;;5096297;28;20336;-51
2022/01/05 09:59:48;;;;;;;;;;;3.80;99.90;;;;;;5092983;28;19954;-52
2022/01/05 10:02:15;;;;;;;;;;;3.80;99.90;;;;;;5094340;28;19969;-52
2022/01/05 10:04:44;;;;;;;;;;;3.70;99.90;;;;;;5107114;28;19993;-52
2022/01/05 10:07:11;;;;;;;;;;;3.70;99.90;;;;;;5086951;28;20422;-51
2022/01/05 10:09:38;;;;;;;;;;;3.70;99.90;;;;;;5088448;28;19935;-51
2022/01/05 10:12:06;;;;;;;;;;;3.80;99.90;;;;;;5092436;28;19924;-51
2022/01/05 10:14:33;;;;;;;;;;;3.80;99.90;;;;;;5090481;28;19924;-51
2022/01/05 10:17:00;;;;;;;;;;;3.70;99.90;;;;;;5091769;28;19928;-51
2022/01/05 10:19:27;;;;;;;;;;;3.70;99.90;;;;;;5090693;28;20283;-51
2022/01/05 10:21:57;;;;;;;;;;;3.60;99.90;;;;;;5102753;28;19928;-52
2022/01/05 10:24:43;;;;;;;;;;;3.70;99.90;;;;;;5089153;28;20458;-52
2022/01/05 10:27:15;;;;;;;;;;;3.70;99.90;;;;;;5091455;28;20401;-52
2022/01/05 10:29:50;;;;;;;;;;;3.60;99.90;;;;;;5091891;28;19928;-52
2022/01/05 10:32:17;;;;;;;;;;;3.50;99.90;;;;;;5091915;28;19924;-52
2022/01/05 10:34:44;;;;;;;;;;;3.60;99.90;;;;;;5088427;28;19928;-52
2022/01/05 10:37:12;;;;;;;;;;;3.60;99.90;;;;;;5089783;28;20445;-52
2022/01/05 10:39:43;;;;;;;;;;;3.70;99.90;;;;;;5091969;28;19928;-52
2022/01/05 10:42:10;;;;;;;;;;;3.60;99.90;;;;;;5091146;28;19931;-52
2022/01/05 10:44:37;;;;;;;;;;;3.60;99.90;;;;;;5095438;28;19927;-52
2022/01/05 10:47:05;;;;;;;;;;;3.60;99.90;;;;;;5092007;28;20344;-52
2022/01/05 10:49:33;;;;;;;;;;;3.60;99.90;;;;;;5089124;28;20560;-52
2022/01/05 10:52:02;;;;;;;;;;;3.50;99.90;;;;;;5090468;28;19981;-52
2022/01/05 10:54:31;;;;;;;;;;;2.70;99.90;;;;;;5091803;28;20078;-52
2022/01/05 10:57:08;;;;;;;;;;;2.20;99.90;;;;;;5091676;28;19924;-52
2022/01/05 10:59:36;;;;;;;;;;;1.80;99.90;;;;;;5091862;28;20353;-52
2022/01/05 11:02:17;;;;;;;;;;;1.70;99.90;;;;;;5092041;28;19924;-52
2022/01/05 11:04:44;;;;;;;;;;;1.70;99.90;;;;;;5091354;28;20282;-52
2022/01/05 11:07:19;;;;;;;;;;;1.80;99.90;;;;;;5095016;28;19924;-51
2022/01/05 11:09:53;;;;;;;;;;;1.70;99.90;;;;;;5095133;28;19932;-51
2022/01/05 11:12:20;;;;;;;;;;;1.70;99.90;;;;;;5095474;28;19977;-51
2022/01/05 11:14:47;;;;;;;;;;;1.60;99.90;;;;;;5095600;28;19977;-51
2022/01/05 11:17:16;;;;;;;;;;;1.70;99.90;;;;;;5092080;28;19940;-52
2022/01/05 11:19:43;;;;;;;;;;;1.80;99.90;;;;;;5087906;28;19924;-52
2022/01/05 11:22:12;;;;;;;;;;;2.00;99.90;;;;;;5092619;28;20293;-52
2022/01/05 11:24:39;;;;;;;;;;;2.10;99.90;;;;;;5096815;28;19977;-51
2022/01/05 11:27:09;;;;;;;;;;;2.20;99.90;;;;;;5093520;28;20037;-51
2022/01/05 11:29:36;;;;;;;;;;;2.10;99.90;;;;;;5094806;28;19977;-52
2022/01/05 11:32:03;;;;;;;;;;;2.20;99.90;;;;;;5085646;28;20447;-51
2022/01/05 11:34:31;;;;;;;;;;;2.10;99.90;;;;;;5094585;28;19928;-51
2022/01/05 11:36:58;;;;;;;;;;;2.10;99.90;;;;;;5095325;28;19994;-52
2022/01/05 11:39:25;;;;;;;;;;;2.10;99.90;;;;;;5094396;28;19928;-51
2022/01/05 11:41:52;;;;;;;;;;;2.20;99.90;;;;;;5095212;28;19977;-52
2022/01/05 11:44:20;;;;;;;;;;;2.20;99.90;;;;;;5095340;28;20005;-51
2022/01/05 11:46:47;;;;;;;;;;;2.30;99.90;;;;;;5094600;28;20378;-52
2022/01/05 11:49:16;;;;;;;;;;;2.40;99.90;;;;;;5093949;28;19932;-52
2022/01/05 11:51:48;;;;;;;;;;;2.30;99.90;;;;;;5094598;28;19924;-51
2022/01/05 11:54:15;;;;;;;;;;;2.10;99.90;;;;;;5095280;28;19924;-52
2022/01/05 11:56:43;;;;;;;;;;;2.00;99.90;;;;;;5094660;28;20385;-51
2022/01/05 11:59:19;;;;;;;;;;;2.10;99.90;;;;;;5094382;28;19928;-51
2022/01/05 12:01:58;;;;;;;;;;;2.10;99.90;;;;;;5094306;28;20473;-51
2022/01/05 12:04:25;;;;;;;;;;;2.10;99.90;;;;;;5077068;28;20020;-51
2022/01/05 12:07:07;;;;;;;;;;;2.10;99.90;;;;;;5093893;28;19932;-52
2022/01/05 12:09:34;;;;;;;;;;;2.20;99.90;;;;;;5094696;28;20401;-51
2022/01/05 12:12:21;;;;;;;;;;;2.20;99.90;;;;;;5093617;28;19928;-52
2022/01/05 12:14:48;;;;;;;;;;;2.20;99.90;;;;;;5094145;28;19924;-52
2022/01/05 12:17:18;;;;;;;;;;;2.40;99.90;;;;;;5092503;28;20011;-51
2022/01/05 12:20:03;;;;;;;;;;;2.50;99.90;;;;;;5094305;28;19925;-51
2022/01/05 12:22:31;;;;;;;;;;;2.60;99.90;;;;;;5093971;28;20303;-52
2022/01/05 12:25:16;;;;;;;;;;;2.50;99.90;;;;;;5094374;28;20007;-52
2022/01/05 12:27:57;;;;;;;;;;;2.50;99.90;;;;;;5094367;28;19928;-52
2022/01/05 12:30:36;;;;;;;;;;;2.40;99.90;;;;;;5093681;28;19924;-52
2022/01/05 12:33:05;;;;;;;;;;;2.40;99.90;;;;;;5093977;28;19935;-51
2022/01/05 12:35:43;;;;;;;;;;;2.30;99.90;;;;;;5095128;28;19931;-51
2022/01/05 12:38:10;;;;;;;;;;;2.30;99.90;;;;;;5094036;28;19982;-52
2022/01/05 12:40:37;;;;;;;;;;;2.40;99.90;;;;;;5093779;28;19924;-52
2022/01/05 12:43:22;;;;;;;;;;;2.40;99.90;;;;;;5093400;28;19924;-52
2022/01/05 12:45:50;;;;;;;;;;;2.40;99.90;;;;;;5094243;28;19924;-52
2022/01/05 12:48:31;;;;;;;;;;;2.50;99.90;;;;;;5093559;28;19928;-52
2022/01/05 12:51:13;;;;;;;;;;;2.60;99.90;;;;;;5088500;28;19924;-52
2022/01/05 12:53:50;;;;;;;;;;;2.70;99.90;;;;;;5092813;28;20359;-52
2022/01/05 12:56:19;;;;;;;;;;;2.80;99.90;;;;;;5093671;28;19924;-51
2022/01/05 12:58:47;;;;;;;;;;;2.90;99.90;;;;;;5093334;28;20018;-51
2022/01/05 13:01:14;;;;;;;;;;;2.90;99.90;;;;;;5093491;28;19924;-51
2022/01/05 13:03:41;;;;;;;;;;;2.90;99.90;;;;;;5093172;28;20446;-51
2022/01/05 13:06:15;;;;;;;;;;;3.10;99.90;;;;;;5093534;28;20019;-52
2022/01/05 13:08:47;;;;;;;;;;;3.10;99.90;;;;;;5093305;28;19970;-51
2022/01/05 13:11:14;;;;;;;;;;;3.20;99.90;;;;;;5093147;28;20019;-52
2022/01/05 13:13:42;;;;;;;;;;;3.30;99.90;;;;;;5091541;28;19928;-53
2022/01/05 13:16:09;;;;;;;;;;;3.30;99.90;;;;;;5095289;28;19924;-52
2022/01/05 13:18:36;;;;;;;;;;;3.30;99.90;;;;;;5092813;28;20404;-52
2022/01/05 13:21:03;;;;;;;;;;;3.20;99.90;;;;;;5093008;28;19928;-52
2022/01/05 13:23:29;;;;;;;;;;;3.30;99.90;;;;;;5095007;28;20347;-52
2022/01/05 13:26:08;;;;;;;;;;;3.50;99.90;;;;;;5092459;28;20447;-51
2022/01/05 13:28:37;;;;;;;;;;;3.50;99.90;;;;;;5091790;28;20497;-52
2022/01/05 13:31:08;;;;;;;;;;;3.60;99.90;;;;;;5093058;28;19928;-51
2022/01/05 13:33:35;;;;;;;;;;;3.70;99.90;;;;;;5093461;28;19928;-52
2022/01/05 13:36:02;;;;;;;;;;;3.70;99.90;;;;;;5093211;28;19970;-52
2022/01/05 13:38:29;;;;;;;;;;;3.80;99.90;;;;;;5091805;28;20409;-52
2022/01/05 13:40:57;;;;;;;;;;;3.90;99.90;;;;;;5092494;28;19928;-52
2022/01/05 13:43:27;;;;;;;;;;;3.90;99.90;;;;;;5085674;28;19974;-52
2022/01/05 13:45:54;;;;;;;;;;;3.90;99.90;;;;;;5089234;28;19928;-53
2022/01/05 13:48:22;;;;;;;;;;;3.70;99.90;;;;;;5091811;28;20402;-52
2022/01/05 13:50:49;;;;;;;;;;;3.70;99.90;;;;;;5095950;22;19978;-53
2022/01/05 13:53:18;;;;;;;;;;;3.70;99.90;;;;;;5082077;28;19924;-52
2022/01/05 13:55:46;;;;;;;;;;;3.60;99.90;;;;;;5069675;28;20528;-52
2022/01/05 13:58:17;;;;;;;;;;;3.60;99.90;;;;;;5071881;28;19932;-53
2022/01/05 14:00:47;;;;;;;;;;;3.50;99.90;;;;;;5064173;28;19932;-53
2022/01/05 14:03:24;;;;;;;;;;;3.60;99.90;;;;;;5063534;28;20417;-53
2022/01/05 14:05:51;;;;;;;;;;;3.60;99.90;;;;;;5082082;28;19959;-53
2022/01/05 14:08:18;;;;;;;;;;;3.50;99.90;;;;;;5056124;28;19924;-55
2022/01/05 14:10:45;;;;;;;;;;;3.60;99.90;;;;;;5071590;28;20313;-54
2022/01/05 14:13:13;;;;;;;;;;;3.40;99.90;;;;;;5071870;28;19928;-53
2022/01/05 14:15:40;;;;;;;;;;;3.40;99.90;;;;;;5070978;28;19932;-57
2022/01/05 14:18:10;;;;;;;;;;;3.20;99.90;;;;;;5062822;28;19994;-53
2022/01/05 14:20:43;;;;;;;;;;;3.10;99.90;;;;;;5055317;28;19932;-53
2022/01/05 14:23:11;;;;;;;;;;;3.00;99.90;;;;;;5071094;28;20007;-53
2022/01/05 14:25:40;;;;;;;;;;;3.00;99.90;;;;;;5067673;28;19925;-53
2022/01/05 14:28:15;;;;;;;;;;;2.80;99.90;;;;;;5057907;28;19925;-53
2022/01/05 14:30:57;;;;;;;;;;;2.70;99.90;;;;;;5068372;28;19928;-55
2022/01/05 14:33:36;;;;;;;;;;;2.60;99.90;;;;;;5065124;28;19937;-52
2022/01/05 14:36:04;;;;;;;;;;;2.70;99.90;;;;;;5071613;28;19932;-54
2022/01/05 14:38:31;;;;;;;;;;;2.80;99.90;;;;;;5069533;28;19925;-53